sensor_id;sensor_type;location;lat;lon;timestamp;P1;durP1;ratioP1;P2;durP2;ratioP2
77164;SDS011;66140;50.280;18.660;2023-04-24T04:01:35;18.48;;;10.13;;
77164;SDS011;66140;50.280;18.660;2023-04-24T04:04:04;20.60;;;9.88;;
77164;SDS011;66140;50.280;18.660;2023-04-24T04:06:30;15.85;;;8.90;;
77164;SDS011;66140;50.280;18.660;2023-04-24T04:08:56;15.70;;;9.07;;
77164;SDS011;66140;50.280;18.660;2023-04-24T04:11:21;20.83;;;9.75;;
77164;SDS011;66140;50.280;18.660;2023-04-24T04:13:47;20.20;;;9.00;;
77164;SDS011;66140;50.280;18.660;2023-04-24T04:16:13;18.48;;;9.15;;
77164;SDS011;66140;50.280;18.660;2023-04-24T04:18:38;13.55;;;8.63;;
77164;SDS011;66140;50.280;18.660;2023-04-24T04:21:04;17.73;;;8.35;;
77164;SDS011;66140;50.280;18.660;2023-04-24T04:23:29;15.93;;;8.40;;
77164;SDS011;66140;50.280;18.660;2023-04-24T04:25:55;14.68;;;7.78;;
77164;SDS011;66140;50.280;18.660;2023-04-24T04:28:21;14.70;;;8.57;;
77164;SDS011;66140;50.280;18.660;2023-04-24T04:30:46;15.95;;;8.68;;
77164;SDS011;66140;50.280;18.660;2023-04-24T04:33:12;16.80;;;8.77;;
77164;SDS011;66140;50.280;18.660;2023-04-24T04:35:39;16.50;;;9.20;;
77164;SDS011;66140;50.280;18.660;2023-04-24T04:38:05;16.38;;;8.00;;
77164;SDS011;66140;50.280;18.660;2023-04-24T04:40:34;17.73;;;8.82;;
77164;SDS011;66140;50.280;18.660;2023-04-24T04:43:01;15.52;;;8.45;;
77164;SDS011;66140;50.280;18.660;2023-04-24T04:45:28;12.95;;;8.10;;
77164;SDS011;66140;50.280;18.660;2023-04-24T04:47:53;13.05;;;8.50;;
77164;SDS011;66140;50.280;18.660;2023-04-24T04:50:25;14.23;;;8.30;;
77164;SDS011;66140;50.280;18.660;2023-04-24T04:52:53;15.02;;;8.32;;
77164;SDS011;66140;50.280;18.660;2023-04-24T04:55:22;13.50;;;8.25;;
77164;SDS011;66140;50.280;18.660;2023-04-24T05:00:17;14.48;;;7.53;;
77164;SDS011;66140;50.280;18.660;2023-04-24T05:02:44;15.48;;;7.53;;
77164;SDS011;66140;50.280;18.660;2023-04-24T05:05:10;14.45;;;6.70;;
77164;SDS011;66140;50.280;18.660;2023-04-24T05:07:35;13.02;;;6.90;;
77164;SDS011;66140;50.280;18.660;2023-04-24T05:10:01;19.95;;;6.65;;
77164;SDS011;66140;50.280;18.660;2023-04-24T05:12:27;14.18;;;7.38;;
77164;SDS011;66140;50.280;18.660;2023-04-24T05:14:52;14.57;;;5.72;;
77164;SDS011;66140;50.280;18.660;2023-04-24T05:17:17;13.48;;;5.80;;
77164;SDS011;66140;50.280;18.660;2023-04-24T05:19:43;15.10;;;7.32;;
77164;SDS011;66140;50.280;18.660;2023-04-24T05:22:09;12.23;;;6.95;;
77164;SDS011;66140;50.280;18.660;2023-04-24T05:24:36;12.95;;;7.43;;
77164;SDS011;66140;50.280;18.660;2023-04-24T05:27:03;17.23;;;7.95;;
77164;SDS011;66140;50.280;18.660;2023-04-24T05:29:29;14.75;;;7.93;;
77164;SDS011;66140;50.280;18.660;2023-04-24T05:31:58;11.98;;;7.20;;
77164;SDS011;66140;50.280;18.660;2023-04-24T05:34:25;12.32;;;7.15;;
77164;SDS011;66140;50.280;18.660;2023-04-24T05:36:50;14.02;;;6.72;;
77164;SDS011;66140;50.280;18.660;2023-04-24T05:39:16;13.10;;;7.72;;
77164;SDS011;66140;50.280;18.660;2023-04-24T05:41:41;19.10;;;11.40;;
77164;SDS011;66140;50.280;18.660;2023-04-24T05:44:08;15.07;;;7.97;;
77164;SDS011;66140;50.280;18.660;2023-04-24T05:49:43;15.00;;;7.20;;
77164;SDS011;66140;50.280;18.660;2023-04-24T05:52:16;17.08;;;7.20;;
77164;SDS011;66140;50.280;18.660;2023-04-24T05:54:42;11.10;;;5.43;;
77164;SDS011;66140;50.280;18.660;2023-04-24T05:57:07;12.68;;;4.95;;
77164;SDS011;66140;50.280;18.660;2023-04-24T05:59:33;11.45;;;5.53;;
77164;SDS011;66140;50.280;18.660;2023-04-24T06:02:01;11.55;;;5.05;;
77164;SDS011;66140;50.280;18.660;2023-04-24T06:04:30;15.63;;;8.63;;
77164;SDS011;66140;50.280;18.660;2023-04-24T06:06:56;20.00;;;11.48;;
77164;SDS011;66140;50.280;18.660;2023-04-24T06:09:22;11.70;;;5.53;;
77164;SDS011;66140;50.280;18.660;2023-04-24T06:11:48;13.90;;;6.20;;
77164;SDS011;66140;50.280;18.660;2023-04-24T06:14:19;14.32;;;7.03;;
77164;SDS011;66140;50.280;18.660;2023-04-24T06:16:48;11.35;;;6.32;;
77164;SDS011;66140;50.280;18.660;2023-04-24T06:19:16;10.50;;;5.57;;
77164;SDS011;66140;50.280;18.660;2023-04-24T06:21:41;10.25;;;5.72;;
77164;SDS011;66140;50.280;18.660;2023-04-24T06:24:06;9.00;;;6.15;;
77164;SDS011;66140;50.280;18.660;2023-04-24T06:26:32;10.15;;;6.43;;
77164;SDS011;66140;50.280;18.660;2023-04-24T06:28:57;12.13;;;5.93;;
77164;SDS011;66140;50.280;18.660;2023-04-24T06:31:24;12.13;;;6.32;;
77164;SDS011;66140;50.280;18.660;2023-04-24T06:33:49;12.40;;;5.88;;
77164;SDS011;66140;50.280;18.660;2023-04-24T06:36:15;18.63;;;9.48;;
77164;SDS011;66140;50.280;18.660;2023-04-24T06:38:41;9.75;;;5.43;;
77164;SDS011;66140;50.280;18.660;2023-04-24T06:41:06;7.97;;;4.90;;
77164;SDS011;66140;50.280;18.660;2023-04-24T06:43:32;8.00;;;4.53;;
77164;SDS011;66140;50.280;18.660;2023-04-24T06:45:58;6.28;;;4.22;;
77164;SDS011;66140;50.280;18.660;2023-04-24T06:48:27;9.45;;;4.22;;
77164;SDS011;66140;50.280;18.660;2023-04-24T06:51:04;6.65;;;4.40;;
77164;SDS011;66140;50.280;18.660;2023-04-24T06:53:38;8.00;;;4.32;;
77164;SDS011;66140;50.280;18.660;2023-04-24T06:56:06;8.93;;;4.15;;
77164;SDS011;66140;50.280;18.660;2023-04-24T06:58:34;7.40;;;3.60;;
77164;SDS011;66140;50.280;18.660;2023-04-24T07:01:00;5.82;;;2.90;;
77164;SDS011;66140;50.280;18.660;2023-04-24T07:03:25;7.32;;;3.47;;
77164;SDS011;66140;50.280;18.660;2023-04-24T07:05:53;8.43;;;5.38;;
77164;SDS011;66140;50.280;18.660;2023-04-24T07:08:19;8.32;;;3.30;;
77164;SDS011;66140;50.280;18.660;2023-04-24T07:10:47;4.15;;;3.47;;
77164;SDS011;66140;50.280;18.660;2023-04-24T07:13:18;6.07;;;3.60;;
77164;SDS011;66140;50.280;18.660;2023-04-24T07:15:44;4.68;;;3.22;;
77164;SDS011;66140;50.280;18.660;2023-04-24T07:18:10;3.08;;;2.78;;
77164;SDS011;66140;50.280;18.660;2023-04-24T07:20:53;6.38;;;2.97;;
77164;SDS011;66140;50.280;18.660;2023-04-24T07:23:22;4.68;;;3.10;;
77164;SDS011;66140;50.280;18.660;2023-04-24T07:25:47;6.63;;;3.10;;
77164;SDS011;66140;50.280;18.660;2023-04-24T07:28:13;4.30;;;2.97;;
77164;SDS011;66140;50.280;18.660;2023-04-24T07:30:38;5.00;;;3.55;;
77164;SDS011;66140;50.280;18.660;2023-04-24T07:33:04;5.72;;;3.53;;
77164;SDS011;66140;50.280;18.660;2023-04-24T07:35:29;5.35;;;3.78;;
77164;SDS011;66140;50.280;18.660;2023-04-24T07:37:55;8.43;;;3.83;;
77164;SDS011;66140;50.280;18.660;2023-04-24T07:40:21;3.95;;;3.13;;
77164;SDS011;66140;50.280;18.660;2023-04-24T07:42:47;5.10;;;3.50;;
77164;SDS011;66140;50.280;18.660;2023-04-24T07:45:13;18.30;;;3.38;;
77164;SDS011;66140;50.280;18.660;2023-04-24T07:47:39;9.55;;;6.13;;
77164;SDS011;66140;50.280;18.660;2023-04-24T07:50:08;7.97;;;4.07;;
77164;SDS011;66140;50.280;18.660;2023-04-24T07:52:34;11.43;;;3.58;;
77164;SDS011;66140;50.280;18.660;2023-04-24T07:55:02;5.88;;;3.15;;
77164;SDS011;66140;50.280;18.660;2023-04-24T07:57:28;4.65;;;3.25;;
77164;SDS011;66140;50.280;18.660;2023-04-24T07:59:54;5.75;;;4.00;;
77164;SDS011;66140;50.280;18.660;2023-04-24T08:02:20;4.65;;;3.42;;
77164;SDS011;66140;50.280;18.660;2023-04-24T08:04:51;5.30;;;4.18;;
77164;SDS011;66140;50.280;18.660;2023-04-24T08:07:16;6.57;;;3.50;;
77164;SDS011;66140;50.280;18.660;2023-04-24T08:09:42;5.88;;;3.40;;
77164;SDS011;66140;50.280;18.660;2023-04-24T08:12:07;7.47;;;3.35;;
77164;SDS011;66140;50.280;18.660;2023-04-24T08:14:33;6.35;;;3.58;;
77164;SDS011;66140;50.280;18.660;2023-04-24T08:16:58;5.40;;;3.60;;
77164;SDS011;66140;50.280;18.660;2023-04-24T08:19:25;6.90;;;3.47;;
77164;SDS011;66140;50.280;18.660;2023-04-24T08:21:50;7.25;;;3.63;;
77164;SDS011;66140;50.280;18.660;2023-04-24T08:24:16;16.30;;;3.73;;
77164;SDS011;66140;50.280;18.660;2023-04-24T08:26:41;5.72;;;3.55;;
77164;SDS011;66140;50.280;18.660;2023-04-24T08:29:07;7.43;;;3.95;;
77164;SDS011;66140;50.280;18.660;2023-04-24T08:31:33;7.38;;;3.85;;
77164;SDS011;66140;50.280;18.660;2023-04-24T08:33:58;5.68;;;3.67;;
77164;SDS011;66140;50.280;18.660;2023-04-24T08:36:25;3.92;;;3.30;;
77164;SDS011;66140;50.280;18.660;2023-04-24T08:38:51;7.30;;;3.75;;
77164;SDS011;66140;50.280;18.660;2023-04-24T08:41:16;4.97;;;3.40;;
77164;SDS011;66140;50.280;18.660;2023-04-24T08:43:43;15.90;;;3.55;;
77164;SDS011;66140;50.280;18.660;2023-04-24T08:46:11;4.68;;;3.05;;
77164;SDS011;66140;50.280;18.660;2023-04-24T08:48:41;6.90;;;3.50;;
77164;SDS011;66140;50.280;18.660;2023-04-24T08:51:07;7.90;;;3.65;;
77164;SDS011;66140;50.280;18.660;2023-04-24T08:53:34;5.97;;;3.17;;
77164;SDS011;66140;50.280;18.660;2023-04-24T08:56:00;11.10;;;3.78;;
77164;SDS011;66140;50.280;18.660;2023-04-24T08:58:26;7.68;;;3.35;;
77164;SDS011;66140;50.280;18.660;2023-04-24T09:00:55;10.60;;;4.72;;
77164;SDS011;66140;50.280;18.660;2023-04-24T09:03:24;6.72;;;3.40;;
77164;SDS011;66140;50.280;18.660;2023-04-24T09:05:52;3.53;;;3.20;;
77164;SDS011;66140;50.280;18.660;2023-04-24T09:10:48;5.97;;;3.33;;
77164;SDS011;66140;50.280;18.660;2023-04-24T09:13:14;6.45;;;3.65;;
77164;SDS011;66140;50.280;18.660;2023-04-24T09:15:39;7.30;;;3.67;;
77164;SDS011;66140;50.280;18.660;2023-04-24T09:18:06;4.47;;;2.97;;
77164;SDS011;66140;50.280;18.660;2023-04-24T09:20:31;5.35;;;3.22;;
77164;SDS011;66140;50.280;18.660;2023-04-24T09:22:58;5.22;;;3.60;;
77164;SDS011;66140;50.280;18.660;2023-04-24T09:25:33;6.10;;;3.67;;
77164;SDS011;66140;50.280;18.660;2023-04-24T09:28:04;4.78;;;3.28;;
77164;SDS011;66140;50.280;18.660;2023-04-24T09:30:31;4.68;;;3.25;;
77164;SDS011;66140;50.280;18.660;2023-04-24T09:33:15;5.30;;;3.15;;
77164;SDS011;66140;50.280;18.660;2023-04-24T09:35:41;4.85;;;3.10;;
77164;SDS011;66140;50.280;18.660;2023-04-24T09:38:08;6.35;;;3.53;;
77164;SDS011;66140;50.280;18.660;2023-04-24T09:40:34;4.38;;;3.05;;
77164;SDS011;66140;50.280;18.660;2023-04-24T09:43:00;9.43;;;3.92;;
77164;SDS011;66140;50.280;18.660;2023-04-24T09:45:28;4.93;;;3.38;;
77164;SDS011;66140;50.280;18.660;2023-04-24T09:47:59;7.97;;;3.83;;
77164;SDS011;66140;50.280;18.660;2023-04-24T09:50:25;5.95;;;3.15;;
77164;SDS011;66140;50.280;18.660;2023-04-24T09:52:58;5.82;;;3.83;;
77164;SDS011;66140;50.280;18.660;2023-04-24T09:55:26;4.85;;;3.08;;
77164;SDS011;66140;50.280;18.660;2023-04-24T09:57:54;4.43;;;3.05;;
77164;SDS011;66140;50.280;18.660;2023-04-24T10:00:25;4.15;;;3.47;;
77164;SDS011;66140;50.280;18.660;2023-04-24T10:03:00;6.50;;;3.75;;
77164;SDS011;66140;50.280;18.660;2023-04-24T10:05:30;7.13;;;3.80;;
77164;SDS011;66140;50.280;18.660;2023-04-24T10:08:10;7.75;;;3.00;;
77164;SDS011;66140;50.280;18.660;2023-04-24T10:10:44;5.30;;;3.72;;
77164;SDS011;66140;50.280;18.660;2023-04-24T10:13:10;6.25;;;3.55;;
77164;SDS011;66140;50.280;18.660;2023-04-24T10:15:37;5.93;;;3.05;;
77164;SDS011;66140;50.280;18.660;2023-04-24T10:18:07;5.13;;;2.92;;
77164;SDS011;66140;50.280;18.660;2023-04-24T10:20:34;4.68;;;3.13;;
77164;SDS011;66140;50.280;18.660;2023-04-24T10:23:02;4.03;;;3.15;;
77164;SDS011;66140;50.280;18.660;2023-04-24T10:25:29;6.32;;;3.22;;
77164;SDS011;66140;50.280;18.660;2023-04-24T10:28:10;3.75;;;3.08;;
77164;SDS011;66140;50.280;18.660;2023-04-24T10:30:39;3.35;;;3.03;;
77164;SDS011;66140;50.280;18.660;2023-04-24T10:33:08;7.32;;;3.63;;
77164;SDS011;66140;50.280;18.660;2023-04-24T10:35:34;7.15;;;3.67;;
77164;SDS011;66140;50.280;18.660;2023-04-24T10:38:14;4.78;;;3.33;;
77164;SDS011;66140;50.280;18.660;2023-04-24T10:40:43;6.53;;;3.33;;
77164;SDS011;66140;50.280;18.660;2023-04-24T10:43:09;7.40;;;3.83;;
77164;SDS011;66140;50.280;18.660;2023-04-24T10:45:36;5.78;;;3.60;;
77164;SDS011;66140;50.280;18.660;2023-04-24T10:48:03;7.38;;;3.88;;
77164;SDS011;66140;50.280;18.660;2023-04-24T10:53:22;5.88;;;3.85;;
77164;SDS011;66140;50.280;18.660;2023-04-24T10:56:04;6.47;;;3.42;;
77164;SDS011;66140;50.280;18.660;2023-04-24T10:58:38;6.07;;;3.40;;
77164;SDS011;66140;50.280;18.660;2023-04-24T11:01:06;9.15;;;4.43;;
77164;SDS011;66140;50.280;18.660;2023-04-24T11:03:33;6.68;;;4.55;;
77164;SDS011;66140;50.280;18.660;2023-04-24T11:06:06;7.25;;;3.70;;
77164;SDS011;66140;50.280;18.660;2023-04-24T11:08:43;8.27;;;3.80;;
77164;SDS011;66140;50.280;18.660;2023-04-24T11:11:13;6.07;;;3.97;;
77164;SDS011;66140;50.280;18.660;2023-04-24T11:21:31;5.57;;;3.60;;
77164;SDS011;66140;50.280;18.660;2023-04-24T11:24:24;7.47;;;3.78;;
77164;SDS011;66140;50.280;18.660;2023-04-24T11:29:41;6.95;;;3.45;;
77164;SDS011;66140;50.280;18.660;2023-04-24T11:32:18;5.43;;;3.42;;
77164;SDS011;66140;50.280;18.660;2023-04-24T11:35:01;6.88;;;3.95;;
77164;SDS011;66140;50.280;18.660;2023-04-24T11:40:07;7.63;;;3.38;;
77164;SDS011;66140;50.280;18.660;2023-04-24T11:42:36;6.72;;;3.97;;
77164;SDS011;66140;50.280;18.660;2023-04-24T11:45:09;8.68;;;3.75;;
77164;SDS011;66140;50.280;18.660;2023-04-24T11:47:36;6.05;;;3.67;;
77164;SDS011;66140;50.280;18.660;2023-04-24T11:50:03;6.50;;;3.78;;
77164;SDS011;66140;50.280;18.660;2023-04-24T11:52:30;5.15;;;3.38;;
77164;SDS011;66140;50.280;18.660;2023-04-24T11:54:55;7.43;;;4.05;;
77164;SDS011;66140;50.280;18.660;2023-04-24T11:57:21;4.20;;;3.20;;
77164;SDS011;66140;50.280;18.660;2023-04-24T12:02:24;6.10;;;3.47;;
77164;SDS011;66140;50.280;18.660;2023-04-24T12:04:51;14.38;;;4.03;;
77164;SDS011;66140;50.280;18.660;2023-04-24T12:07:17;6.63;;;3.65;;
77164;SDS011;66140;50.280;18.660;2023-04-24T12:12:22;5.15;;;3.58;;
77164;SDS011;66140;50.280;18.660;2023-04-24T12:14:57;5.82;;;3.90;;
77164;SDS011;66140;50.280;18.660;2023-04-24T12:17:24;5.57;;;3.92;;
77164;SDS011;66140;50.280;18.660;2023-04-24T12:22:16;5.30;;;3.23;;
77164;SDS011;66140;50.280;18.660;2023-04-24T12:25:01;5.95;;;3.85;;
77164;SDS011;66140;50.280;18.660;2023-04-24T12:27:29;7.75;;;3.20;;
77164;SDS011;66140;50.280;18.660;2023-04-24T12:29:56;7.22;;;3.83;;
77164;SDS011;66140;50.280;18.660;2023-04-24T12:32:23;4.88;;;3.45;;
77164;SDS011;66140;50.280;18.660;2023-04-24T12:34:51;4.03;;;3.22;;
77164;SDS011;66140;50.280;18.660;2023-04-24T12:37:25;6.25;;;3.60;;
77164;SDS011;66140;50.280;18.660;2023-04-24T12:39:58;6.50;;;4.40;;
77164;SDS011;66140;50.280;18.660;2023-04-24T12:43:01;6.30;;;4.22;;
77164;SDS011;66140;50.280;18.660;2023-04-24T12:45:20;4.80;;;3.40;;
77164;SDS011;66140;50.280;18.660;2023-04-24T12:47:48;3.90;;;3.47;;
77164;SDS011;66140;50.280;18.660;2023-04-24T12:50:14;5.40;;;3.15;;
77164;SDS011;66140;50.280;18.660;2023-04-24T12:52:40;5.18;;;3.72;;
77164;SDS011;66140;50.280;18.660;2023-04-24T12:55:06;4.63;;;3.80;;
77164;SDS011;66140;50.280;18.660;2023-04-24T12:57:34;9.07;;;4.65;;
77164;SDS011;66140;50.280;18.660;2023-04-24T13:00:00;10.60;;;4.72;;
77164;SDS011;66140;50.280;18.660;2023-04-24T13:02:27;5.82;;;3.42;;
77164;SDS011;66140;50.280;18.660;2023-04-24T13:04:55;5.00;;;3.60;;
77164;SDS011;66140;50.280;18.660;2023-04-24T13:07:21;3.55;;;3.20;;
77164;SDS011;66140;50.280;18.660;2023-04-24T13:09:47;7.00;;;3.55;;
77164;SDS011;66140;50.280;18.660;2023-04-24T13:12:13;4.18;;;2.85;;
77164;SDS011;66140;50.280;18.660;2023-04-24T13:14:53;5.93;;;3.28;;
77164;SDS011;66140;50.280;18.660;2023-04-24T13:17:26;3.42;;;2.63;;
77164;SDS011;66140;50.280;18.660;2023-04-24T13:23:11;4.07;;;3.22;;
77164;SDS011;66140;50.280;18.660;2023-04-24T13:25:45;7.30;;;3.03;;
77164;SDS011;66140;50.280;18.660;2023-04-24T13:28:32;6.05;;;3.75;;
77164;SDS011;66140;50.280;18.660;2023-04-24T13:30:58;7.40;;;3.72;;
77164;SDS011;66140;50.280;18.660;2023-04-24T13:33:23;5.15;;;3.33;;
77164;SDS011;66140;50.280;18.660;2023-04-24T13:35:49;3.97;;;3.58;;
77164;SDS011;66140;50.280;18.660;2023-04-24T13:38:14;4.53;;;3.55;;
77164;SDS011;66140;50.280;18.660;2023-04-24T13:40:39;5.05;;;3.67;;
77164;SDS011;66140;50.280;18.660;2023-04-24T13:43:08;6.10;;;3.65;;
77164;SDS011;66140;50.280;18.660;2023-04-24T13:45:34;6.20;;;4.05;;
77164;SDS011;66140;50.280;18.660;2023-04-24T13:48:00;5.22;;;3.83;;
77164;SDS011;66140;50.280;18.660;2023-04-24T13:50:26;4.43;;;3.70;;
77164;SDS011;66140;50.280;18.660;2023-04-24T13:52:52;4.68;;;3.60;;
77164;SDS011;66140;50.280;18.660;2023-04-24T13:55:17;5.47;;;3.40;;
77164;SDS011;66140;50.280;18.660;2023-04-24T13:57:43;4.32;;;3.33;;
77164;SDS011;66140;50.280;18.660;2023-04-24T14:00:08;4.38;;;3.20;;
77164;SDS011;66140;50.280;18.660;2023-04-24T14:02:36;6.60;;;4.13;;
77164;SDS011;66140;50.280;18.660;2023-04-24T14:05:02;5.43;;;3.58;;
77164;SDS011;66140;50.280;18.660;2023-04-24T14:07:28;6.50;;;3.90;;
77164;SDS011;66140;50.280;18.660;2023-04-24T14:09:53;6.72;;;3.95;;
77164;SDS011;66140;50.280;18.660;2023-04-24T14:12:19;4.68;;;3.88;;
77164;SDS011;66140;50.280;18.660;2023-04-24T14:14:46;4.53;;;4.05;;
77164;SDS011;66140;50.280;18.660;2023-04-24T14:17:16;4.25;;;3.85;;
77164;SDS011;66140;50.280;18.660;2023-04-24T14:19:44;6.25;;;3.75;;
77164;SDS011;66140;50.280;18.660;2023-04-24T14:22:10;6.10;;;3.83;;
77164;SDS011;66140;50.280;18.660;2023-04-24T14:24:35;4.85;;;3.47;;
77164;SDS011;66140;50.280;18.660;2023-04-24T14:27:04;5.38;;;3.70;;
77164;SDS011;66140;50.280;18.660;2023-04-24T14:29:30;4.15;;;3.60;;
77164;SDS011;66140;50.280;18.660;2023-04-24T14:31:55;5.30;;;3.50;;
77164;SDS011;66140;50.280;18.660;2023-04-24T14:34:21;3.80;;;3.33;;
77164;SDS011;66140;50.280;18.660;2023-04-24T14:36:46;4.63;;;3.88;;
77164;SDS011;66140;50.280;18.660;2023-04-24T14:39:11;4.72;;;3.60;;
77164;SDS011;66140;50.280;18.660;2023-04-24T14:41:37;7.90;;;3.75;;
77164;SDS011;66140;50.280;18.660;2023-04-24T14:44:04;4.85;;;3.25;;
77164;SDS011;66140;50.280;18.660;2023-04-24T14:46:30;6.20;;;4.28;;
77164;SDS011;66140;50.280;18.660;2023-04-24T14:48:56;5.88;;;3.67;;
77164;SDS011;66140;50.280;18.660;2023-04-24T14:51:22;6.25;;;3.50;;
77164;SDS011;66140;50.280;18.660;2023-04-24T14:53:48;4.60;;;3.20;;
77164;SDS011;66140;50.280;18.660;2023-04-24T14:56:15;6.13;;;3.90;;
77164;SDS011;66140;50.280;18.660;2023-04-24T14:58:40;5.53;;;3.22;;
77164;SDS011;66140;50.280;18.660;2023-04-24T15:01:06;4.28;;;3.05;;
77164;SDS011;66140;50.280;18.660;2023-04-24T15:03:31;5.95;;;3.45;;
77164;SDS011;66140;50.280;18.660;2023-04-24T15:05:57;6.20;;;3.15;;
77164;SDS011;66140;50.280;18.660;2023-04-24T15:08:22;3.65;;;3.30;;
77164;SDS011;66140;50.280;18.660;2023-04-24T15:10:47;4.45;;;3.10;;
77164;SDS011;66140;50.280;18.660;2023-04-24T15:13:13;5.75;;;3.25;;
77164;SDS011;66140;50.280;18.660;2023-04-24T15:15:39;5.32;;;3.25;;
77164;SDS011;66140;50.280;18.660;2023-04-24T15:18:05;4.75;;;2.85;;
77164;SDS011;66140;50.280;18.660;2023-04-24T15:20:30;7.05;;;3.65;;
77164;SDS011;66140;50.280;18.660;2023-04-24T15:22:56;6.45;;;3.33;;
77164;SDS011;66140;50.280;18.660;2023-04-24T15:25:23;5.70;;;3.45;;
77164;SDS011;66140;50.280;18.660;2023-04-24T15:27:49;5.20;;;3.90;;
77164;SDS011;66140;50.280;18.660;2023-04-24T15:30:14;5.15;;;3.58;;
77164;SDS011;66140;50.280;18.660;2023-04-24T15:32:40;4.70;;;3.45;;
77164;SDS011;66140;50.280;18.660;2023-04-24T15:35:06;6.22;;;4.03;;
77164;SDS011;66140;50.280;18.660;2023-04-24T15:37:32;5.95;;;3.58;;
77164;SDS011;66140;50.280;18.660;2023-04-24T15:40:01;9.40;;;3.80;;
77164;SDS011;66140;50.280;18.660;2023-04-24T15:42:29;10.95;;;6.72;;
77164;SDS011;66140;50.280;18.660;2023-04-24T15:44:55;9.63;;;5.45;;
77164;SDS011;66140;50.280;18.660;2023-04-24T15:47:20;8.85;;;4.75;;
77164;SDS011;66140;50.280;18.660;2023-04-24T15:49:46;8.02;;;4.82;;
77164;SDS011;66140;50.280;18.660;2023-04-24T15:52:11;10.43;;;6.15;;
77164;SDS011;66140;50.280;18.660;2023-04-24T15:54:38;8.05;;;5.00;;
77164;SDS011;66140;50.280;18.660;2023-04-24T15:57:05;8.10;;;5.10;;
77164;SDS011;66140;50.280;18.660;2023-04-24T15:59:31;9.27;;;5.10;;
77164;SDS011;66140;50.280;18.660;2023-04-24T16:01:56;6.13;;;5.07;;
77164;SDS011;66140;50.280;18.660;2023-04-24T16:04:22;8.77;;;5.70;;
77164;SDS011;66140;50.280;18.660;2023-04-24T16:06:47;11.82;;;5.45;;
77164;SDS011;66140;50.280;18.660;2023-04-24T16:09:23;11.60;;;7.07;;
77164;SDS011;66140;50.280;18.660;2023-04-24T16:11:49;7.05;;;5.38;;
77164;SDS011;66140;50.280;18.660;2023-04-24T16:14:14;12.02;;;6.90;;
77164;SDS011;66140;50.280;18.660;2023-04-24T16:16:40;13.48;;;7.47;;
77164;SDS011;66140;50.280;18.660;2023-04-24T16:19:05;8.98;;;5.95;;
77164;SDS011;66140;50.280;18.660;2023-04-24T16:21:32;8.73;;;6.00;;
77164;SDS011;66140;50.280;18.660;2023-04-24T16:23:58;6.80;;;5.63;;
77164;SDS011;66140;50.280;18.660;2023-04-24T16:26:24;7.57;;;5.93;;
77164;SDS011;66140;50.280;18.660;2023-04-24T16:28:51;10.00;;;5.85;;
77164;SDS011;66140;50.280;18.660;2023-04-24T16:31:17;8.25;;;5.65;;
77164;SDS011;66140;50.280;18.660;2023-04-24T16:33:43;8.25;;;5.78;;
77164;SDS011;66140;50.280;18.660;2023-04-24T16:36:08;11.20;;;6.10;;
77164;SDS011;66140;50.280;18.660;2023-04-24T16:38:35;13.63;;;6.40;;
77164;SDS011;66140;50.280;18.660;2023-04-24T16:41:00;8.40;;;6.65;;
77164;SDS011;66140;50.280;18.660;2023-04-24T16:43:29;9.55;;;7.00;;
77164;SDS011;66140;50.280;18.660;2023-04-24T16:45:55;9.73;;;5.30;;
77164;SDS011;66140;50.280;18.660;2023-04-24T16:48:20;11.25;;;6.50;;
77164;SDS011;66140;50.280;18.660;2023-04-24T16:50:46;11.40;;;7.13;;
77164;SDS011;66140;50.280;18.660;2023-04-24T16:53:11;10.50;;;7.15;;
77164;SDS011;66140;50.280;18.660;2023-04-24T16:55:40;17.55;;;8.45;;
77164;SDS011;66140;50.280;18.660;2023-04-24T16:58:24;10.20;;;6.63;;
77164;SDS011;66140;50.280;18.660;2023-04-24T17:00:51;14.48;;;8.82;;
77164;SDS011;66140;50.280;18.660;2023-04-24T17:03:20;10.13;;;7.18;;
77164;SDS011;66140;50.280;18.660;2023-04-24T17:05:45;16.48;;;9.30;;
77164;SDS011;66140;50.280;18.660;2023-04-24T17:08:29;11.10;;;7.80;;
77164;SDS011;66140;50.280;18.660;2023-04-24T17:10:56;9.95;;;6.90;;
77164;SDS011;66140;50.280;18.660;2023-04-24T17:13:59;17.50;;;9.13;;
77164;SDS011;66140;50.280;18.660;2023-04-24T17:16:25;13.25;;;8.02;;
77164;SDS011;66140;50.280;18.660;2023-04-24T17:18:51;12.45;;;8.68;;
77164;SDS011;66140;50.280;18.660;2023-04-24T17:21:19;14.73;;;9.13;;
77164;SDS011;66140;50.280;18.660;2023-04-24T17:23:44;21.50;;;12.25;;
77164;SDS011;66140;50.280;18.660;2023-04-24T17:26:19;19.02;;;11.90;;
77164;SDS011;66140;50.280;18.660;2023-04-24T17:29:19;16.90;;;10.20;;
77164;SDS011;66140;50.280;18.660;2023-04-24T17:32:05;11.98;;;8.45;;
77164;SDS011;66140;50.280;18.660;2023-04-24T17:38:31;12.10;;;8.38;;
77164;SDS011;66140;50.280;18.660;2023-04-24T17:54:28;17.08;;;10.07;;
77164;SDS011;66140;50.280;18.660;2023-04-24T17:56:54;13.85;;;9.45;;
77164;SDS011;66140;50.280;18.660;2023-04-24T17:59:23;13.98;;;9.50;;
77164;SDS011;66140;50.280;18.660;2023-04-24T18:01:51;15.15;;;10.02;;
77164;SDS011;66140;50.280;18.660;2023-04-24T18:04:18;13.55;;;9.25;;
77164;SDS011;66140;50.280;18.660;2023-04-24T18:06:44;18.58;;;10.27;;
77164;SDS011;66140;50.280;18.660;2023-04-24T18:09:11;16.67;;;10.43;;
77164;SDS011;66140;50.280;18.660;2023-04-24T18:11:42;16.75;;;11.18;;
77164;SDS011;66140;50.280;18.660;2023-04-24T18:14:10;15.60;;;10.70;;
77164;SDS011;66140;50.280;18.660;2023-04-24T18:16:36;19.08;;;12.00;;
77164;SDS011;66140;50.280;18.660;2023-04-24T18:19:03;15.98;;;10.88;;
77164;SDS011;66140;50.280;18.660;2023-04-24T18:21:29;16.67;;;12.13;;
77164;SDS011;66140;50.280;18.660;2023-04-24T18:23:55;16.10;;;12.25;;
77164;SDS011;66140;50.280;18.660;2023-04-24T18:26:25;17.42;;;12.20;;
77164;SDS011;66140;50.280;18.660;2023-04-24T18:28:51;19.33;;;12.52;;
77164;SDS011;66140;50.280;18.660;2023-04-24T18:31:17;18.05;;;12.02;;
77164;SDS011;66140;50.280;18.660;2023-04-24T18:33:42;17.33;;;12.50;;
77164;SDS011;66140;50.280;18.660;2023-04-24T18:36:10;23.15;;;13.88;;
77164;SDS011;66140;50.280;18.660;2023-04-24T18:38:35;25.80;;;16.63;;
77164;SDS011;66140;50.280;18.660;2023-04-24T18:41:01;26.60;;;17.20;;
77164;SDS011;66140;50.280;18.660;2023-04-24T18:43:27;24.70;;;16.27;;
77164;SDS011;66140;50.280;18.660;2023-04-24T18:45:52;29.00;;;19.73;;
77164;SDS011;66140;50.280;18.660;2023-04-24T18:48:17;25.50;;;17.40;;
77164;SDS011;66140;50.280;18.660;2023-04-24T18:50:43;28.37;;;19.77;;
77164;SDS011;66140;50.280;18.660;2023-04-24T18:53:08;23.98;;;16.27;;
77164;SDS011;66140;50.280;18.660;2023-04-24T18:55:37;28.50;;;17.83;;
77164;SDS011;66140;50.280;18.660;2023-04-24T18:58:02;28.88;;;18.30;;
77164;SDS011;66140;50.280;18.660;2023-04-24T19:00:27;30.05;;;19.98;;
77164;SDS011;66140;50.280;18.660;2023-04-24T19:02:53;26.70;;;17.90;;
77164;SDS011;66140;50.280;18.660;2023-04-24T19:05:18;27.42;;;18.63;;
77164;SDS011;66140;50.280;18.660;2023-04-24T19:07:44;27.40;;;17.70;;
77164;SDS011;66140;50.280;18.660;2023-04-24T19:10:09;34.53;;;20.67;;
77164;SDS011;66140;50.280;18.660;2023-04-24T19:12:35;32.10;;;19.17;;
77164;SDS011;66140;50.280;18.660;2023-04-24T19:15:01;29.08;;;18.83;;
77164;SDS011;66140;50.280;18.660;2023-04-24T19:17:27;23.55;;;16.02;;
77164;SDS011;66140;50.280;18.660;2023-04-24T19:19:52;25.10;;;16.42;;
77164;SDS011;66140;50.280;18.660;2023-04-24T19:22:18;28.27;;;17.48;;
77164;SDS011;66140;50.280;18.660;2023-04-24T19:24:46;28.23;;;18.88;;